CST,Max TemperatureF,Mean TemperatureF,Min TemperatureF,Max Dew PointF,MeanDew PointF,Min DewpointF,Max Humidity, Mean Humidity, Min Humidity, Max Sea Level PressureIn, Mean Sea Level PressureIn, Min Sea Level PressureIn, Max VisibilityMiles, Mean VisibilityMiles, Min VisibilityMiles, Max Wind SpeedMPH, Mean Wind SpeedMPH, Max Gust SpeedMPH,PrecipitationIn, CloudCover, Events, WindDirDegrees
2011-11-1,75,63,51,52,47,45,80,56,36,30.16,30.08,30.01,10,10,10,17,10,28,0.00,0,,167
2011-11-2,79,63,46,61,54,34,90,72,50,30.27,30.04,29.93,10,10,8,25,16,38,0.04,6,Rain,190
2011-11-3,57,48,39,33,26,16,68,46,20,30.41,30.34,30.29,10,10,10,15,9,24,0.00,1,,323
2011-11-4,64,46,30,38,31,26,88,63,30,30.30,30.23,30.13,10,10,10,6,2,,0.00,0,,349
2011-11-5,68,56,44,48,43,38,89,64,42,30.11,30.01,29.89,10,10,10,23,9,31,0.00,0,,145
2011-11-6,77,68,61,63,60,52,84,73,64,30.02,29.98,29.91,10,10,10,21,15,28,0.00,7,,166
2011-11-7,73,70,68,66,65,63,93,84,73,30.04,29.98,29.90,10,10,7,22,12,28,0.00,8,Rain,152
2011-11-8,73,64,51,68,61,42,90,81,70,30.13,29.90,29.83,10,10,9,24,12,32,0.00,5,Rain,212
2011-11-9,61,52,42,42,35,29,79,59,30,30.44,30.33,30.15,10,10,10,13,9,22,0.00,0,,335
2011-11-10,64,49,34,36,32,26,92,58,24,30.50,30.41,30.30,10,10,10,10,3,16,0.00,0,,311
2011-11-11,68,52,35,34,29,25,86,45,20,30.27,30.13,30.03,10,10,10,22,9,29,0.00,0,,188
2011-11-12,73,60,46,54,46,28,71,56,43,30.02,29.90,29.82,10,10,10,26,14,36,0.00,0,,185
2011-11-13,82,73,64,61,58,55,84,65,42,29.85,29.80,29.74,10,10,10,24,15,34,0.00,0,,196
2011-11-14,80,73,66,65,63,61,87,73,54,29.87,29.79,29.74,10,10,8,21,14,26,0.00,4,Rain,200
2011-11-15,81,72,64,70,65,59,100,84,49,29.78,29.73,29.66,10,8,2,14,8,,0.00,5,,187
2011-11-16,63,54,44,61,46,21,94,68,38,30.38,29.99,29.74,10,9,7,18,8,29,0.00,7,,4
2011-11-17,55,44,34,30,28,23,85,57,30,30.52,30.40,30.29,10,10,10,9,5,,0.00,0,,106
2011-11-18,64,52,39,52,38,29,75,56,37,30.27,30.10,29.93,10,10,10,21,12,25,0.00,3,,162
2011-11-19,78,69,60,67,61,54,90,79,64,29.93,29.89,29.83,10,10,10,21,15,29,0.00,7,,176
2011-11-20,79,64,48,70,59,45,94,84,63,30.15,30.06,29.93,10,9,6,16,9,24,0.02,6,Rain,272
2011-11-21,55,50,46,54,48,44,100,93,82,30.21,30.03,29.83,10,5,1,14,6,32,0.61,8,Rain-Thunderstorm,347
2011-11-22,59,52,45,50,46,43,100,90,69,30.25,30.08,29.93,10,8,1,10,5,21,0.00,5,Rain,316
2011-11-23,66,52,37,49,42,36,100,88,42,30.35,30.28,30.22,10,4,0,5,1,,0.00,0,Fog,359
2011-11-24,53,45,37,50,45,37,100,94,82,30.37,30.28,30.19,8,3,0,13,3,22,0.00,5,Fog,135
2011-11-25,69,60,50,56,53,48,100,84,63,30.17,30.04,29.88,10,6,0,18,10,24,0.01,7,Fog,157
2011-11-26,64,55,46,59,50,28,94,77,46,30.22,29.95,29.82,10,10,7,21,14,31,0.16,7,Rain,254
2011-11-27,50,44,36,23,19,17,50,40,28,30.36,30.28,30.22,10,10,10,16,11,26,0.00,0,,326
2011-11-28,55,44,32,26,21,15,70,47,21,30.24,30.15,30.07,10,10,10,9,5,,0.00,0,,325
2011-11-29,57,45,33,33,28,23,78,52,34,30.29,30.22,30.13,10,10,10,13,4,20,0.00,0,,332
2011-11-30,57,44,30,32,28,20,88,59,25,30.30,30.22,30.12,10,10,10,9,4,,0.00,0,,171